Time;durP1;ratioP1;P1;durP2;ratioP2;P2;SDS_P1;SDS_P2;PMS_P1;PMS_P2;Temp;Humidity;BMP_temperature;BMP_pressure;BME280_temperature;BME280_humidity;BME280_pressure;Samples;Min_cycle;Max_cycle;Signal;HPM_P1;HPM_P2
2022/04/26 03:37:11;;;;;;;;;;;21.20;45.60;;;;;;5148198;27;19934;-56
2022/04/26 03:39:37;;;;;;;;;;;21.00;46.10;;;;;;5139995;27;19949;-53
2022/04/26 03:42:06;;;;;;;;;;;21.20;45.60;;;;;;5145421;27;20225;-58
2022/04/26 03:44:32;;;;;;;;;;;21.00;46.00;;;;;;5142278;27;20403;-58
2022/04/26 03:46:57;;;;;;;;;;;21.30;45.10;;;;;;5142509;27;20013;-48
2022/04/26 03:49:23;;;;;;;;;;;21.00;45.70;;;;;;5148142;27;19927;-53
2022/04/26 03:51:52;;;;;;;;;;;21.20;45.50;;;;;;5142767;27;19972;-51
2022/04/26 03:54:21;;;;;;;;;;;21.20;45.40;;;;;;5142711;27;20050;-51
2022/04/26 03:56:47;;;;;;;;;;;21.20;45.40;;;;;;5148074;27;20354;-49
2022/04/26 03:59:12;;;;;;;;;;;21.10;45.50;;;;;;5138580;27;19923;-49
2022/04/26 04:01:39;;;;;;;;;;;21.20;45.20;;;;;;5143329;27;19923;-52
2022/04/26 04:04:04;;;;;;;;;;;21.10;45.30;;;;;;5146117;27;19931;-58
2022/04/26 04:06:30;;;;;;;;;;;21.10;45.40;;;;;;5142256;27;19988;-55
2022/04/26 04:08:56;;;;;;;;;;;21.00;45.50;;;;;;5147746;27;19926;-55
2022/04/26 04:11:22;;;;;;;;;;;21.00;45.50;;;;;;5123697;27;19991;-54
2022/04/26 04:13:48;;;;;;;;;;;21.10;45.30;;;;;;5142221;27;19927;-55
2022/04/26 04:16:13;;;;;;;;;;;21.20;45.30;;;;;;5146128;27;20001;-52
2022/04/26 04:21:23;;;;;;;;;;;21.20;45.30;;;;;;5141626;27;20558;-51
2022/04/26 04:23:49;;;;;;;;;;;21.10;45.20;;;;;;5147291;27;19959;-54
2022/04/26 04:26:15;;;;;;;;;;;21.20;45.10;;;;;;5141960;27;21872;-58
2022/04/26 04:28:41;;;;;;;;;;;21.20;45.10;;;;;;5145491;27;19972;-56
2022/04/26 04:31:08;;;;;;;;;;;21.20;45.40;;;;;;5144312;27;19970;-59
2022/04/26 04:33:33;;;;;;;;;;;21.20;45.10;;;;;;5141848;27;19923;-58
2022/04/26 04:35:59;;;;;;;;;;;21.10;45.60;;;;;;5143058;27;19930;-58
2022/04/26 04:38:26;;;;;;;;;;;21.30;45.00;;;;;;5140735;27;19934;-58
2022/04/26 04:40:53;;;;;;;;;;;21.00;45.40;;;;;;5141720;27;19927;-58
2022/04/26 04:43:18;;;;;;;;;;;21.30;44.60;;;;;;5147303;27;20038;-56
2022/04/26 04:45:44;;;;;;;;;;;20.90;45.40;;;;;;5142139;27;19958;-54
2022/04/26 04:48:10;;;;;;;;;;;21.30;44.80;;;;;;5123801;27;19927;-55
2022/04/26 04:50:36;;;;;;;;;;;21.10;45.00;;;;;;5145991;27;19934;-55
2022/04/26 04:53:02;;;;;;;;;;;21.20;44.90;;;;;;5139966;27;19934;-59
2022/04/26 04:55:27;;;;;;;;;;;21.30;44.70;;;;;;5143803;27;19985;-55
2022/04/26 04:57:53;;;;;;;;;;;21.20;44.60;;;;;;5122855;27;19963;-52
2022/04/26 05:00:19;;;;;;;;;;;21.20;44.40;;;;;;5141480;27;19931;-49
2022/04/26 05:02:45;;;;;;;;;;;21.20;44.60;;;;;;5147128;27;20366;-57
2022/04/26 05:05:11;;;;;;;;;;;21.30;44.30;;;;;;5141576;27;19966;-48
2022/04/26 05:07:36;;;;;;;;;;;21.00;44.80;;;;;;5141524;27;19923;-57
2022/04/26 05:10:03;;;;;;;;;;;21.30;44.40;;;;;;5146752;27;19923;-49
2022/04/26 05:12:28;;;;;;;;;;;21.00;44.70;;;;;;5137812;27;19933;-54
2022/04/26 05:14:54;;;;;;;;;;;21.20;44.40;;;;;;5145157;27;20126;-57
2022/04/26 05:17:20;;;;;;;;;;;21.20;44.40;;;;;;5140970;27;19946;-55
2022/04/26 05:19:46;;;;;;;;;;;21.20;44.30;;;;;;5141045;27;19931;-55
2022/04/26 05:22:11;;;;;;;;;;;21.10;44.40;;;;;;5146526;27;19923;-58
2022/04/26 05:24:58;;;;;;;;;;;21.20;44.20;;;;;;5141274;27;19923;-56
2022/04/26 05:27:25;;;;;;;;;;;21.00;45.00;;;;;;5141480;27;19927;-59
2022/04/26 05:29:51;;;;;;;;;;;21.20;44.70;;;;;;5144366;27;19927;-55
2022/04/26 05:32:23;;;;;;;;;;;21.00;45.50;;;;;;5138425;27;19930;-52
2022/04/26 05:34:54;;;;;;;;;;;21.30;44.90;;;;;;5140624;27;20119;-50
2022/04/26 05:37:20;;;;;;;;;;;21.10;45.20;;;;;;5146510;27;20009;-56
2022/04/26 05:39:45;;;;;;;;;;;21.30;44.80;;;;;;5141179;27;20028;-49
2022/04/26 05:42:11;;;;;;;;;;;21.10;45.20;;;;;;5145651;27;19923;-56
2022/04/26 05:44:42;;;;;;;;;;;21.20;45.20;;;;;;5142727;27;19934;-57
2022/04/26 05:47:08;;;;;;;;;;;21.10;45.60;;;;;;5140972;27;21965;-58
2022/04/26 05:49:34;;;;;;;;;;;21.20;45.10;;;;;;5142171;27;19923;-58
2022/04/26 05:52:00;;;;;;;;;;;21.00;45.60;;;;;;5139776;27;19927;-55
2022/04/26 05:54:26;;;;;;;;;;;21.10;45.20;;;;;;5140683;27;19923;-47
2022/04/26 05:56:54;;;;;;;;;;;21.00;45.50;;;;;;5146228;27;19967;-56
2022/04/26 05:59:20;;;;;;;;;;;21.20;45.10;;;;;;5140717;27;19926;-54
2022/04/26 06:01:46;;;;;;;;;;;21.20;45.20;;;;;;5142310;27;19973;-56
2022/04/26 06:04:12;;;;;;;;;;;21.10;45.50;;;;;;5149867;27;19923;-58
2022/04/26 06:06:38;;;;;;;;;;;21.20;45.20;;;;;;5142393;27;19964;-57
2022/04/26 06:09:04;;;;;;;;;;;21.10;45.80;;;;;;5147099;27;20294;-57
2022/04/26 06:11:30;;;;;;;;;;;21.30;45.00;;;;;;5143619;27;19923;-54
2022/04/26 06:13:55;;;;;;;;;;;21.10;45.50;;;;;;5144031;27;20871;-57
2022/04/26 06:16:21;;;;;;;;;;;21.30;45.10;;;;;;5149577;27;19982;-54
2022/04/26 06:18:47;;;;;;;;;;;21.10;45.50;;;;;;5144436;27;20022;-54
2022/04/26 06:21:13;;;;;;;;;;;21.20;45.50;;;;;;5144251;27;19934;-57
2022/04/26 06:23:39;;;;;;;;;;;21.10;45.50;;;;;;5149555;27;19923;-47
2022/04/26 06:26:05;;;;;;;;;;;21.30;45.30;;;;;;5140324;27;19927;-57
2022/04/26 06:28:31;;;;;;;;;;;21.20;45.00;;;;;;5147710;27;19931;-58
2022/04/26 06:30:56;;;;;;;;;;;21.10;45.40;;;;;;5143579;27;19923;-57
2022/04/26 06:33:22;;;;;;;;;;;21.30;44.90;;;;;;5143979;27;19970;-54
2022/04/26 06:35:48;;;;;;;;;;;21.10;45.10;;;;;;5149392;27;19930;-53
2022/04/26 06:38:14;;;;;;;;;;;21.20;44.80;;;;;;5143713;27;19930;-55
2022/04/26 06:40:40;;;;;;;;;;;21.10;44.80;;;;;;5143624;27;20547;-48
2022/04/26 06:43:06;;;;;;;;;;;21.20;44.80;;;;;;5147727;27;19930;-57
2022/04/26 06:45:31;;;;;;;;;;;21.10;44.70;;;;;;5140084;27;19942;-58
2022/04/26 06:47:58;;;;;;;;;;;21.10;44.90;;;;;;5148469;27;19946;-57
2022/04/26 06:50:24;;;;;;;;;;;21.30;44.50;;;;;;5144269;27;20271;-50
2022/04/26 06:52:50;;;;;;;;;;;21.10;44.80;;;;;;5143527;27;19957;-58
2022/04/26 06:55:16;;;;;;;;;;;21.20;44.60;;;;;;5130630;27;19930;-56
2022/04/26 06:57:42;;;;;;;;;;;21.00;45.20;;;;;;5143520;27;19945;-57
2022/04/26 07:00:08;;;;;;;;;;;21.30;44.40;;;;;;5143361;27;19930;-57
2022/04/26 07:02:34;;;;;;;;;;;21.00;44.90;;;;;;5145524;27;20358;-58
2022/04/26 07:04:59;;;;;;;;;;;21.30;44.20;;;;;;5141111;27;19927;-57
2022/04/26 07:07:25;;;;;;;;;;;21.10;44.50;;;;;;5145508;27;19927;-56
2022/04/26 07:09:51;;;;;;;;;;;21.20;44.00;;;;;;5146309;27;19923;-51
2022/04/26 07:12:17;;;;;;;;;;;21.00;44.50;;;;;;5142809;27;19931;-58
2022/04/26 07:14:43;;;;;;;;;;;21.30;44.10;;;;;;5148059;27;19927;-51
2022/04/26 07:17:10;;;;;;;;;;;21.10;44.60;;;;;;5143209;27;20363;-58
2022/04/26 07:19:36;;;;;;;;;;;21.20;44.30;;;;;;5142471;27;19952;-54
2022/04/26 07:22:05;;;;;;;;;;;21.00;44.60;;;;;;5144178;27;19978;-58
2022/04/26 07:24:33;;;;;;;;;;;21.30;44.00;;;;;;5123910;27;19923;-50
2022/04/26 07:26:59;;;;;;;;;;;21.00;44.00;;;;;;5142737;27;19939;-51
2022/04/26 07:29:25;;;;;;;;;;;21.30;43.40;;;;;;5148346;27;19980;-52
2022/04/26 07:31:51;;;;;;;;;;;21.10;43.80;;;;;;5142913;27;19927;-50
2022/04/26 07:34:24;;;;;;;;;;;21.20;43.80;;;;;;5148426;27;19923;-50
2022/04/26 07:36:50;;;;;;;;;;;21.10;43.80;;;;;;5143179;27;19953;-58
2022/04/26 07:39:17;;;;;;;;;;;21.20;43.40;;;;;;5139783;27;19931;-56
2022/04/26 07:41:44;;;;;;;;;;;21.20;43.50;;;;;;5146151;27;19945;-57
2022/04/26 07:44:10;;;;;;;;;;;21.20;43.50;;;;;;5142265;27;19927;-58
2022/04/26 07:46:37;;;;;;;;;;;21.20;43.40;;;;;;5142594;27;20226;-48
2022/04/26 07:49:03;;;;;;;;;;;21.20;43.60;;;;;;5148034;27;19966;-58
2022/04/26 07:51:30;;;;;;;;;;;21.30;43.20;;;;;;5142380;27;19940;-57
2022/04/26 07:53:56;;;;;;;;;;;21.20;43.40;;;;;;5121422;27;20031;-58
2022/04/26 07:56:22;;;;;;;;;;;21.20;43.20;;;;;;5146907;27;20149;-55
2022/04/26 07:58:48;;;;;;;;;;;21.20;43.00;;;;;;5138389;27;20259;-58
2022/04/26 08:01:13;;;;;;;;;;;21.30;42.60;;;;;;5147218;27;19923;-58
2022/04/26 08:03:39;;;;;;;;;;;21.10;42.50;;;;;;5142040;27;20059;-50
2022/04/26 08:06:05;;;;;;;;;;;21.10;42.50;;;;;;5142160;27;19943;-52
2022/04/26 08:08:31;;;;;;;;;;;21.30;42.20;;;;;;5147903;27;19954;-54
2022/04/26 08:10:58;;;;;;;;;;;21.30;42.10;;;;;;5142333;27;19927;-49
2022/04/26 08:13:23;;;;;;;;;;;21.00;42.60;;;;;;5142375;27;19923;-54
2022/04/26 08:15:49;;;;;;;;;;;21.30;42.00;;;;;;5144413;27;19976;-57
2022/04/26 08:18:16;;;;;;;;;;;21.20;41.70;;;;;;5139984;27;19927;-50
2022/04/26 08:20:41;;;;;;;;;;;21.20;41.90;;;;;;5147282;27;20009;-57
2022/04/26 08:23:07;;;;;;;;;;;21.30;41.60;;;;;;5141966;27;19934;-55
2022/04/26 08:28:17;;;;;;;;;;;21.20;42.10;;;;;;5144305;27;20074;-55
2022/04/26 08:30:43;;;;;;;;;;;21.20;41.80;;;;;;5141764;27;19962;-55
2022/04/26 08:33:09;;;;;;;;;;;21.20;41.80;;;;;;5141150;27;19931;-56
2022/04/26 08:35:35;;;;;;;;;;;21.10;42.40;;;;;;5143109;27;20408;-50
2022/04/26 08:38:01;;;;;;;;;;;21.20;42.60;;;;;;5141343;27;20382;-55
2022/04/26 08:40:27;;;;;;;;;;;21.20;42.90;;;;;;5141468;27;19923;-56
2022/04/26 08:42:53;;;;;;;;;;;21.10;43.20;;;;;;5147302;27;20363;-54
2022/04/26 08:45:19;;;;;;;;;;;21.20;42.80;;;;;;5141991;27;19923;-58
2022/04/26 08:53:18;;;;;;;;;;;21.10;42.00;;;;;;5137582;27;20415;-57
2022/04/26 08:55:44;;;;;;;;;;;21.30;41.10;;;;;;5144941;27;19952;-57
2022/04/26 08:58:14;;;;;;;;;;;21.30;40.40;;;;;;5124543;27;19933;-59
2022/04/26 09:00:40;;;;;;;;;;;21.20;40.20;;;;;;5141574;27;19923;-51
2022/04/26 09:03:07;;;;;;;;;;;21.10;40.40;;;;;;5127188;27;20290;-59
2022/04/26 09:05:33;;;;;;;;;;;21.30;39.80;;;;;;5141565;27;19980;-57
2022/04/26 09:07:59;;;;;;;;;;;21.20;40.10;;;;;;5141503;27;19975;-57
2022/04/26 09:10:25;;;;;;;;;;;21.20;40.20;;;;;;5144354;27;19969;-57
2022/04/26 09:13:04;;;;;;;;;;;21.20;40.20;;;;;;5138573;27;19924;-54
2022/04/26 09:15:44;;;;;;;;;;;21.10;40.70;;;;;;5141030;27;20211;-58
2022/04/26 09:18:18;;;;;;;;;;;21.20;40.60;;;;;;5146662;27;19923;-51
2022/04/26 09:20:45;;;;;;;;;;;21.00;40.70;;;;;;5141145;27;19931;-57
2022/04/26 09:23:18;;;;;;;;;;;21.30;40.00;;;;;;5141212;27;20254;-59
2022/04/26 09:25:44;;;;;;;;;;;21.30;39.60;;;;;;5146754;27;19995;-57
2022/04/26 09:28:18;;;;;;;;;;;21.30;39.70;;;;;;5140939;27;19923;-58
2022/04/26 09:30:44;;;;;;;;;;;21.00;40.30;;;;;;5137122;27;19923;-59
2022/04/26 09:33:09;;;;;;;;;;;21.30;40.20;;;;;;5127233;27;19991;-55
2022/04/26 09:35:35;;;;;;;;;;;21.20;40.30;;;;;;5141145;27;19923;-57
2022/04/26 09:38:02;;;;;;;;;;;21.20;40.40;;;;;;5149905;27;19929;-56
2022/04/26 09:40:28;;;;;;;;;;;21.30;39.90;;;;;;5145014;27;19975;-54
2022/04/26 09:42:54;;;;;;;;;;;21.20;39.90;;;;;;5144669;27;19975;-58
2022/04/26 09:45:20;;;;;;;;;;;21.30;39.50;;;;;;5150179;27;19926;-54
2022/04/26 09:47:46;;;;;;;;;;;21.20;39.10;;;;;;5141619;27;19942;-56
2022/04/26 09:50:13;;;;;;;;;;;21.20;38.90;;;;;;5142483;27;20236;-57
2022/04/26 09:52:39;;;;;;;;;;;21.20;37.80;;;;;;5149572;27;19937;-58
2022/04/26 09:55:05;;;;;;;;;;;21.30;37.30;;;;;;5125953;27;19924;-52
2022/04/26 09:57:32;;;;;;;;;;;21.10;36.90;;;;;;5150058;27;19923;-56
2022/04/26 09:59:59;;;;;;;;;;;21.20;36.50;;;;;;5126003;27;19941;-58
2022/04/26 10:02:30;;;;;;;;;;;21.30;36.40;;;;;;5144342;27;19923;-50
2022/04/26 10:04:56;;;;;;;;;;;21.10;36.80;;;;;;5130970;27;19923;-58
2022/04/26 10:07:21;;;;;;;;;;;21.30;36.50;;;;;;5121682;27;19923;-50
2022/04/26 10:09:47;;;;;;;;;;;21.20;36.60;;;;;;5143482;27;19927;-53
2022/04/26 10:12:13;;;;;;;;;;;21.30;37.00;;;;;;5149415;27;19923;-59
2022/04/26 10:14:39;;;;;;;;;;;21.30;36.40;;;;;;5125551;27;19934;-59
2022/04/26 10:17:05;;;;;;;;;;;21.20;36.20;;;;;;5147347;27;19923;-54
2022/04/26 10:19:40;;;;;;;;;;;21.20;36.20;;;;;;5147182;27;19934;-58
2022/04/26 10:22:08;;;;;;;;;;;21.30;35.80;;;;;;5144162;27;19926;-58
2022/04/26 10:24:34;;;;;;;;;;;21.20;35.80;;;;;;5146357;27;19923;-54
2022/04/26 10:27:19;;;;;;;;;;;21.30;35.30;;;;;;5142057;27;20157;-56
2022/04/26 10:29:45;;;;;;;;;;;21.10;35.40;;;;;;5143674;27;20397;-58
2022/04/26 10:32:11;;;;;;;;;;;21.10;35.30;;;;;;5149133;27;19927;-58
2022/04/26 10:34:39;;;;;;;;;;;21.20;35.30;;;;;;5125359;27;19927;-55
2022/04/26 10:37:11;;;;;;;;;;;21.20;35.60;;;;;;5125668;27;19975;-58
2022/04/26 10:39:38;;;;;;;;;;;21.30;35.10;;;;;;5149365;27;20367;-58
2022/04/26 10:42:15;;;;;;;;;;;21.30;34.40;;;;;;5142010;27;19934;-58
2022/04/26 10:44:41;;;;;;;;;;;21.30;34.20;;;;;;5140673;27;20359;-56
2022/04/26 10:47:07;;;;;;;;;;;21.20;34.00;;;;;;5129528;27;19937;-58
2022/04/26 10:49:38;;;;;;;;;;;21.20;34.30;;;;;;5143515;27;20370;-53
2022/04/26 10:52:10;;;;;;;;;;;21.20;34.50;;;;;;5142692;27;21203;-58
2022/04/26 10:54:48;;;;;;;;;;;21.30;34.10;;;;;;5149028;27;19923;-56
2022/04/26 10:57:14;;;;;;;;;;;21.30;33.80;;;;;;5143499;27;19933;-59
2022/04/26 10:59:41;;;;;;;;;;;21.30;33.70;;;;;;5145893;27;19927;-59
2022/04/26 11:02:16;;;;;;;;;;;21.30;33.50;;;;;;5142170;27;20301;-57
2022/04/26 11:04:42;;;;;;;;;;;21.30;33.20;;;;;;5142534;27;19979;-57
2022/04/26 11:07:11;;;;;;;;;;;21.30;33.10;;;;;;5148302;27;19927;-57
2022/04/26 11:09:43;;;;;;;;;;;21.30;32.80;;;;;;5143177;27;20014;-59
2022/04/26 11:12:09;;;;;;;;;;;21.30;32.50;;;;;;5142947;27;20014;-56
2022/04/26 11:14:41;;;;;;;;;;;21.30;32.40;;;;;;5148660;27;20034;-58
2022/04/26 11:17:07;;;;;;;;;;;21.30;32.30;;;;;;5143288;27;19923;-58
2022/04/26 11:19:36;;;;;;;;;;;21.30;32.00;;;;;;5140145;27;19934;-57
2022/04/26 11:22:03;;;;;;;;;;;21.30;32.50;;;;;;5146271;27;20386;-56
2022/04/26 11:29:57;;;;;;;;;;;21.20;35.90;;;;;;5148525;27;20399;-57
2022/04/26 11:32:26;;;;;;;;;;;21.30;36.00;;;;;;5142744;27;19926;-56
2022/04/26 11:34:52;;;;;;;;;;;21.20;36.00;;;;;;5142904;27;20481;-56
2022/04/26 11:37:18;;;;;;;;;;;21.30;35.80;;;;;;5146250;27;19948;-58
2022/04/26 11:39:44;;;;;;;;;;;21.20;36.00;;;;;;5139920;27;19930;-54
2022/04/26 11:42:11;;;;;;;;;;;21.00;36.40;;;;;;5147186;27;19950;-59
2022/04/26 11:44:37;;;;;;;;;;;21.20;36.00;;;;;;5143637;27;20023;-57
2022/04/26 11:47:03;;;;;;;;;;;20.90;36.30;;;;;;5142882;27;19934;-59
2022/04/26 11:49:41;;;;;;;;;;;21.30;35.70;;;;;;5148048;27;20286;-50
2022/04/26 11:52:07;;;;;;;;;;;21.10;36.10;;;;;;5142483;27;20290;-51
2022/04/26 11:54:36;;;;;;;;;;;21.20;35.90;;;;;;5142671;27;19970;-54
2022/04/26 11:57:03;;;;;;;;;;;21.20;35.90;;;;;;5143651;27;19927;-53
2022/04/26 11:59:28;;;;;;;;;;;21.20;35.80;;;;;;5140572;27;19931;-55
2022/04/26 12:01:54;;;;;;;;;;;21.30;35.60;;;;;;5142108;27;19987;-49
2022/04/26 12:04:20;;;;;;;;;;;21.10;35.60;;;;;;5147922;27;19923;-56
2022/04/26 12:06:46;;;;;;;;;;;21.30;35.10;;;;;;5142553;27;20010;-57
2022/04/26 12:09:14;;;;;;;;;;;21.20;35.20;;;;;;5147834;27;19931;-59
2022/04/26 12:11:41;;;;;;;;;;;21.30;34.60;;;;;;5143010;27;19926;-49
2022/04/26 12:14:14;;;;;;;;;;;21.20;34.50;;;;;;5140199;27;19923;-57
2022/04/26 12:16:40;;;;;;;;;;;21.30;34.10;;;;;;5144687;27;19923;-58
2022/04/26 12:19:06;;;;;;;;;;;21.30;34.00;;;;;;5141586;27;19930;-57
2022/04/26 12:21:44;;;;;;;;;;;21.30;34.00;;;;;;5142159;27;19927;-48
2022/04/26 12:24:11;;;;;;;;;;;21.00;34.40;;;;;;5147736;27;20010;-58
2022/04/26 12:26:37;;;;;;;;;;;21.30;34.20;;;;;;5141960;27;19930;-53
2022/04/26 12:29:02;;;;;;;;;;;21.10;34.60;;;;;;5141770;27;20180;-53
2022/04/26 12:31:29;;;;;;;;;;;21.30;34.60;;;;;;5127363;27;19924;-58
2022/04/26 12:34:14;;;;;;;;;;;21.30;34.50;;;;;;5137757;27;20600;-48
2022/04/26 12:36:51;;;;;;;;;;;21.10;34.90;;;;;;5137879;27;20203;-48
2022/04/26 12:39:18;;;;;;;;;;;21.10;35.40;;;;;;5147271;27;20021;-56
2022/04/26 12:41:50;;;;;;;;;;;21.30;35.50;;;;;;5141790;27;20032;-58
2022/04/26 12:44:17;;;;;;;;;;;21.20;35.50;;;;;;5142135;27;19927;-56
2022/04/26 12:46:45;;;;;;;;;;;21.10;34.90;;;;;;5147180;27;19929;-58
2022/04/26 12:51:57;;;;;;;;;;;21.20;33.90;;;;;;5140275;27;20325;-55
2022/04/26 12:54:23;;;;;;;;;;;21.20;33.70;;;;;;5143871;27;19927;-57
2022/04/26 12:56:58;;;;;;;;;;;21.30;33.80;;;;;;5141507;27;20271;-54
2022/04/26 12:59:23;;;;;;;;;;;21.20;34.30;;;;;;5147148;27;19945;-56
2022/04/26 13:01:49;;;;;;;;;;;21.10;34.90;;;;;;5141569;27;19931;-58
2022/04/26 13:04:15;;;;;;;;;;;21.30;34.90;;;;;;5141646;27;20500;-58
2022/04/26 13:06:42;;;;;;;;;;;20.90;36.00;;;;;;5147164;27;19975;-58
2022/04/26 13:09:08;;;;;;;;;;;21.30;35.50;;;;;;5120933;27;19927;-58
2022/04/26 13:11:34;;;;;;;;;;;21.00;36.50;;;;;;5137086;27;19923;-57
2022/04/26 13:14:00;;;;;;;;;;;21.30;36.00;;;;;;5146277;27;19923;-55
2022/04/26 13:16:26;;;;;;;;;;;21.20;36.30;;;;;;5141341;27;19923;-55
2022/04/26 13:18:52;;;;;;;;;;;21.20;36.30;;;;;;5146814;27;20014;-59
2022/04/26 13:21:17;;;;;;;;;;;21.30;35.80;;;;;;5141371;27;19927;-51
2022/04/26 13:23:43;;;;;;;;;;;21.00;36.70;;;;;;5141492;27;19927;-56
2022/04/26 13:26:09;;;;;;;;;;;21.10;37.10;;;;;;5146512;27;19927;-57
2022/04/26 13:28:35;;;;;;;;;;;21.30;37.30;;;;;;5137104;27;20023;-56
2022/04/26 13:31:01;;;;;;;;;;;21.30;37.50;;;;;;5139438;27;20181;-58
2022/04/26 13:33:27;;;;;;;;;;;21.20;36.60;;;;;;5146398;27;19980;-57
2022/04/26 13:35:53;;;;;;;;;;;21.30;35.90;;;;;;5140948;27;19982;-57
2022/04/26 13:38:20;;;;;;;;;;;21.30;35.50;;;;;;5145037;27;19927;-57
2022/04/26 13:40:47;;;;;;;;;;;21.30;35.00;;;;;;5143104;27;19970;-50
2022/04/26 13:43:13;;;;;;;;;;;21.10;35.20;;;;;;5137011;27;20034;-56
2022/04/26 13:45:39;;;;;;;;;;;21.30;35.00;;;;;;5126836;27;19931;-59
2022/04/26 13:48:09;;;;;;;;;;;21.30;34.50;;;;;;5137161;27;19975;-57
2022/04/26 13:50:35;;;;;;;;;;;21.30;34.20;;;;;;5140447;27;19926;-56
2022/04/26 13:53:01;;;;;;;;;;;21.20;34.30;;;;;;5127902;27;20401;-50
2022/04/26 13:55:27;;;;;;;;;;;21.00;33.70;;;;;;5140949;27;19923;-58
2022/04/26 13:57:53;;;;;;;;;;;21.30;33.40;;;;;;5141007;27;19938;-59
2022/04/26 14:00:19;;;;;;;;;;;21.20;33.20;;;;;;5146412;27;19923;-54
2022/04/26 14:02:46;;;;;;;;;;;21.10;32.90;;;;;;5140683;27;19945;-47
2022/04/26 14:05:15;;;;;;;;;;;21.20;32.90;;;;;;5123466;27;20006;-58
2022/04/26 14:07:41;;;;;;;;;;;21.30;32.50;;;;;;5139110;27;19937;-58
2022/04/26 14:10:07;;;;;;;;;;;21.30;32.40;;;;;;5140432;27;19923;-58
2022/04/26 14:12:34;;;;;;;;;;;21.30;32.70;;;;;;5145845;27;19953;-58
2022/04/26 14:23:13;;;;;;;;;;;21.00;33.10;;;;;;5139379;27;20286;-59
2022/04/26 14:25:39;;;;;;;;;;;21.30;32.80;;;;;;5141397;27;19927;-55
2022/04/26 14:28:05;;;;;;;;;;;21.30;32.70;;;;;;5148965;27;20439;-57
2022/04/26 14:30:31;;;;;;;;;;;21.30;32.80;;;;;;5143471;27;19924;-59
2022/04/26 14:32:57;;;;;;;;;;;21.30;32.70;;;;;;5143667;27;19927;-59
2022/04/26 14:35:23;;;;;;;;;;;21.30;32.70;;;;;;5149492;27;19923;-58
2022/04/26 14:37:51;;;;;;;;;;;21.30;32.50;;;;;;5144062;27;19991;-59
2022/04/26 14:40:17;;;;;;;;;;;21.30;32.70;;;;;;5147079;27;20430;-58
2022/04/26 14:42:46;;;;;;;;;;;21.30;32.90;;;;;;5141760;27;19927;-58
2022/04/26 14:45:12;;;;;;;;;;;21.30;32.90;;;;;;5142763;27;19929;-56
2022/04/26 14:47:38;;;;;;;;;;;21.30;32.80;;;;;;5148958;27;20272;-59
2022/04/26 14:50:05;;;;;;;;;;;21.30;33.40;;;;;;5143752;27;19931;-56
2022/04/26 14:52:30;;;;;;;;;;;21.30;32.90;;;;;;5143773;27;20263;-59
2022/04/26 14:54:57;;;;;;;;;;;21.30;32.80;;;;;;5149171;27;19974;-59
2022/04/26 14:57:23;;;;;;;;;;;21.30;32.70;;;;;;5143848;27;20382;-59
2022/04/26 14:59:49;;;;;;;;;;;21.30;32.90;;;;;;5140869;27;20019;-56
2022/04/26 15:02:17;;;;;;;;;;;21.20;32.90;;;;;;5146209;27;19923;-57
2022/04/26 15:04:43;;;;;;;;;;;21.30;33.00;;;;;;5143066;27;19956;-58
2022/04/26 15:07:09;;;;;;;;;;;21.30;32.60;;;;;;5148659;27;20408;-57
2022/04/26 15:09:43;;;;;;;;;;;21.30;32.50;;;;;;5143394;27;19966;-57
2022/04/26 15:17:38;;;;;;;;;;;21.20;33.20;;;;;;5146582;27;20386;-59
2022/04/26 15:20:05;;;;;;;;;;;21.20;33.20;;;;;;5121199;27;19930;-50
2022/04/26 15:22:30;;;;;;;;;;;21.00;33.40;;;;;;5147879;27;19927;-56
2022/04/26 15:24:56;;;;;;;;;;;21.30;33.20;;;;;;5142888;27;19927;-59
2022/04/26 15:27:22;;;;;;;;;;;21.20;33.20;;;;;;5142957;27;19934;-49
2022/04/26 15:29:48;;;;;;;;;;;21.20;33.30;;;;;;5148605;27;20290;-57
2022/04/26 15:32:13;;;;;;;;;;;21.30;33.00;;;;;;5143372;27;20324;-53
2022/04/26 15:34:39;;;;;;;;;;;21.20;33.30;;;;;;5141887;27;19966;-56
2022/04/26 15:37:05;;;;;;;;;;;21.20;33.20;;;;;;5144614;27;19923;-54
2022/04/26 15:39:31;;;;;;;;;;;21.00;33.50;;;;;;5140797;27;20378;-58
2022/04/26 15:41:57;;;;;;;;;;;21.20;33.50;;;;;;5148025;27;19927;-56
2022/04/26 15:44:23;;;;;;;;;;;21.10;33.90;;;;;;5142493;27;20298;-50
2022/04/26 15:46:52;;;;;;;;;;;21.20;34.20;;;;;;5142772;27;19930;-58
2022/04/26 15:49:18;;;;;;;;;;;21.30;35.30;;;;;;5148044;27;20383;-57
2022/04/26 15:51:44;;;;;;;;;;;21.10;36.60;;;;;;5142570;27;19927;-53
2022/04/26 15:54:10;;;;;;;;;;;21.10;37.20;;;;;;5141714;27;20078;-53
2022/04/26 15:56:36;;;;;;;;;;;21.20;37.70;;;;;;5125583;27;19931;-56
2022/04/26 15:59:02;;;;;;;;;;;21.20;38.00;;;;;;5142027;27;19927;-58
2022/04/26 16:01:28;;;;;;;;;;;21.20;38.20;;;;;;5147816;27;20021;-51
2022/04/26 16:03:54;;;;;;;;;;;21.20;38.10;;;;;;5142556;27;20055;-48
2022/04/26 16:06:19;;;;;;;;;;;21.20;38.60;;;;;;5142556;27;20447;-58
2022/04/26 16:08:46;;;;;;;;;;;21.30;38.30;;;;;;5147813;27;20321;-56
2022/04/26 16:22:10;;;;;;;;;;;21.10;38.20;;;;;;5142126;27;20432;-55
2022/04/26 16:24:38;;;;;;;;;;;21.20;38.00;;;;;;5147623;27;19930;-53
2022/04/26 16:27:05;;;;;;;;;;;21.20;38.30;;;;;;5142262;27;20848;-56
2022/04/26 16:29:31;;;;;;;;;;;21.30;38.10;;;;;;5142067;27;20018;-53
2022/04/26 16:31:56;;;;;;;;;;;21.10;38.40;;;;;;5144165;27;20004;-53
2022/04/26 16:34:22;;;;;;;;;;;21.20;38.40;;;;;;5139826;27;19930;-52
2022/04/26 16:36:48;;;;;;;;;;;21.10;38.50;;;;;;5123247;27;20544;-55
2022/04/26 16:39:14;;;;;;;;;;;21.20;38.40;;;;;;5147324;27;20006;-58
2022/04/26 16:41:40;;;;;;;;;;;21.30;38.20;;;;;;5141998;27;20438;-47
2022/04/26 16:44:07;;;;;;;;;;;21.10;38.60;;;;;;5146520;27;19923;-57
2022/04/26 16:46:33;;;;;;;;;;;21.30;38.30;;;;;;5143443;27;19927;-51
2022/04/26 16:49:01;;;;;;;;;;;21.10;38.40;;;;;;5141623;27;20374;-58
2022/04/26 16:51:29;;;;;;;;;;;21.20;38.00;;;;;;5142550;27;19931;-54
2022/04/26 16:53:58;;;;;;;;;;;21.00;38.40;;;;;;5140878;27;20301;-56
2022/04/26 16:56:24;;;;;;;;;;;21.30;38.20;;;;;;5141225;27;19927;-47
2022/04/26 16:58:50;;;;;;;;;;;21.00;38.60;;;;;;5147107;27;19945;-58
2022/04/26 17:01:16;;;;;;;;;;;21.20;38.20;;;;;;5141679;27;19965;-58
2022/04/26 17:03:41;;;;;;;;;;;20.90;38.60;;;;;;5141630;27;19923;-58
2022/04/26 17:06:07;;;;;;;;;;;21.30;38.20;;;;;;5147052;27;20361;-57
2022/04/26 17:08:33;;;;;;;;;;;21.00;38.50;;;;;;5134450;27;20037;-53
2022/04/26 17:13:45;;;;;;;;;;;21.00;38.20;;;;;;5144776;27;20058;-58
2022/04/26 17:16:11;;;;;;;;;;;21.30;37.50;;;;;;5141369;27;19927;-51
2022/04/26 17:18:37;;;;;;;;;;;21.10;37.60;;;;;;5146984;27;20396;-58
2022/04/26 17:21:03;;;;;;;;;;;21.30;37.30;;;;;;5141536;27;19963;-50
2022/04/26 17:23:29;;;;;;;;;;;21.10;37.60;;;;;;5141119;27;19930;-54
2022/04/26 17:25:55;;;;;;;;;;;21.10;37.70;;;;;;5146207;27;19983;-58
2022/04/26 17:28:23;;;;;;;;;;;21.30;37.50;;;;;;5137336;27;19980;-56
2022/04/26 17:30:49;;;;;;;;;;;21.20;37.70;;;;;;5140456;27;19923;-57
2022/04/26 17:33:15;;;;;;;;;;;21.30;37.70;;;;;;5146463;27;20126;-57
2022/04/26 17:35:41;;;;;;;;;;;21.10;38.10;;;;;;5141325;27;19972;-58
2022/04/26 17:38:07;;;;;;;;;;;21.20;38.00;;;;;;5146618;27;20343;-56
2022/04/26 17:40:33;;;;;;;;;;;21.10;38.20;;;;;;5140936;27;20006;-56
2022/04/26 17:42:59;;;;;;;;;;;21.10;38.60;;;;;;5141032;27;19951;-50
2022/04/26 17:45:25;;;;;;;;;;;21.30;38.60;;;;;;5143249;27;20422;-58
2022/04/26 17:47:51;;;;;;;;;;;21.30;38.50;;;;;;5138752;27;19934;-58
2022/04/26 17:50:16;;;;;;;;;;;21.20;38.60;;;;;;5122062;27;19942;-56
2022/04/26 17:58:12;;;;;;;;;;;21.00;38.70;;;;;;5143337;27;20333;-59
2022/04/26 18:00:37;;;;;;;;;;;21.30;38.30;;;;;;5150168;27;20017;-50
2022/04/26 18:03:03;;;;;;;;;;;21.20;38.40;;;;;;5142704;27;20105;-53
2022/04/26 18:05:29;;;;;;;;;;;21.30;38.30;;;;;;5143439;27;19923;-60
2022/04/26 18:07:55;;;;;;;;;;;21.10;38.40;;;;;;5128976;27;19927;-47
2022/04/26 18:10:21;;;;;;;;;;;21.20;38.60;;;;;;5144165;27;20377;-53
2022/04/26 18:12:49;;;;;;;;;;;21.10;38.50;;;;;;5149591;27;19927;-58
2022/04/26 18:15:15;;;;;;;;;;;21.20;38.70;;;;;;5144168;27;19930;-52
2022/04/26 18:17:41;;;;;;;;;;;21.10;38.80;;;;;;5144305;27;19923;-56
2022/04/26 18:20:06;;;;;;;;;;;21.20;38.70;;;;;;5149798;27;19939;-55
2022/04/26 18:22:32;;;;;;;;;;;21.20;38.60;;;;;;5140480;27;19924;-58
2022/04/26 18:24:58;;;;;;;;;;;21.30;38.30;;;;;;5142399;27;19985;-51
2022/04/26 18:27:24;;;;;;;;;;;21.00;38.60;;;;;;5149319;27;19923;-53
2022/04/26 18:29:51;;;;;;;;;;;21.20;38.10;;;;;;5143881;27;19927;-47
2022/04/26 18:32:17;;;;;;;;;;;21.10;38.30;;;;;;5149280;27;20309;-54
2022/04/26 18:34:43;;;;;;;;;;;21.30;38.10;;;;;;5144093;27;19930;-57
2022/04/26 18:37:09;;;;;;;;;;;21.20;37.90;;;;;;5143879;27;20007;-58
2022/04/26 18:39:35;;;;;;;;;;;21.20;38.00;;;;;;5148185;27;19923;-58
2022/04/26 18:42:00;;;;;;;;;;;21.30;37.80;;;;;;5121826;27;19931;-49